createdAt,value
2019-04-01T00:01:50.885Z,97118.38
2019-04-01T00:04:22.578Z,97119.46
2019-04-01T00:06:54.296Z,97109.39
2019-04-01T00:09:26.028Z,97115.39
2019-04-01T00:11:59.432Z,97107.95
2019-04-01T00:14:31.786Z,97110.71
2019-04-01T00:17:03.470Z,97111.06
2019-04-01T00:19:35.206Z,97108.39
2019-04-01T00:22:07.930Z,97101.69
2019-04-01T00:24:40.964Z,97110.07
2019-04-01T00:27:14.574Z,97106.22
2019-04-01T00:29:46.287Z,97102.56
2019-04-01T00:32:17.933Z,97105.67
2019-04-01T00:34:49.572Z,97100.60
2019-04-01T00:37:21.307Z,97100.05
2019-04-01T00:39:52.974Z,97101.79
2019-04-01T00:42:31.090Z,97103.17
2019-04-01T00:45:02.811Z,97109.77
2019-04-01T00:47:34.949Z,97108.88
2019-04-01T00:50:07.770Z,97108.69
2019-04-01T00:52:42.164Z,97105.73
2019-04-01T00:55:14.589Z,97103.17
2019-04-01T00:57:46.735Z,97111.41
2019-04-01T01:00:20.523Z,97107.02
2019-04-01T01:02:52.685Z,97102.59
2019-04-01T01:05:24.264Z,97099.47
2019-04-01T01:07:56.934Z,97104.51
2019-04-01T01:10:28.680Z,97098.09
2019-04-01T01:13:00.385Z,97099.13
2019-04-01T01:15:32.004Z,97100.66
2019-04-01T01:18:03.830Z,97095.23
2019-04-01T01:20:35.917Z,97097.06
2019-04-01T01:23:15.092Z,97103.83
2019-04-01T01:25:46.714Z,97103.54
2019-04-01T01:28:18.444Z,97101.61
2019-04-01T01:30:50.225Z,97099.69
2019-04-01T01:33:22.133Z,97098.70
2019-04-01T01:35:53.897Z,97101.45
2019-04-01T01:38:25.638Z,97101.07
2019-04-01T01:40:57.289Z,97105.55
2019-04-01T01:43:30.734Z,97103.39
2019-04-01T01:46:03.058Z,97110.01
2019-04-01T01:48:35.342Z,97110.59
2019-04-01T01:51:08.124Z,97114.20
2019-04-01T01:53:43.242Z,97107.44
2019-04-01T01:56:16.312Z,97115.87
2019-04-01T01:58:48.035Z,97123.17
2019-04-01T02:01:19.862Z,97119.52
2019-04-01T02:03:51.640Z,97129.03
2019-04-01T02:06:23.957Z,97133.38
2019-04-01T02:08:55.766Z,97132.94
2019-04-01T02:11:27.687Z,97133.38
2019-04-01T02:13:59.429Z,97129.98
2019-04-01T02:16:31.182Z,97132.19
2019-04-01T02:19:02.855Z,97131.93
2019-04-01T02:21:34.577Z,97138.84
2019-04-01T02:24:06.470Z,97133.83
2019-04-01T02:26:38.198Z,97135.86
2019-04-01T02:29:09.874Z,97135.30
2019-04-01T02:31:41.484Z,97135.65
2019-04-01T02:34:13.207Z,97141.02
2019-04-01T02:36:45.387Z,97142.84
2019-04-01T02:39:17.132Z,97147.04
2019-04-01T02:41:49.790Z,97147.04
2019-04-01T02:44:22.421Z,97157.34
2019-04-01T02:46:55.316Z,97150.05
2019-04-01T02:49:27.949Z,97150.34
2019-04-01T02:51:59.760Z,97146.39
2019-04-01T02:54:31.642Z,97136.31
2019-04-01T02:57:05.168Z,97136.47
2019-04-01T02:59:36.974Z,97135.03
2019-04-01T03:02:08.718Z,97135.95
2019-04-01T03:04:40.921Z,97140.33
2019-04-01T03:07:14.171Z,97145.75
2019-04-01T03:09:45.896Z,97144.88
2019-04-01T03:12:18.348Z,97144.86
2019-04-01T03:14:52.414Z,97144.74
2019-04-01T03:17:24.635Z,97145.91
2019-04-01T03:19:58.406Z,97139.95
2019-04-01T03:22:30.721Z,97148.06
2019-04-01T03:25:02.562Z,97153.84
2019-04-01T03:27:34.427Z,97155.72
2019-04-01T03:30:06.636Z,97158.93
2019-04-01T03:32:44.763Z,97154.55
2019-04-01T03:35:15.519Z,97158.03
2019-04-01T03:37:47.679Z,97158.39
2019-04-01T03:40:19.310Z,97165.52
2019-04-01T03:42:51.089Z,97156.55
2019-04-01T03:45:26.189Z,97157.30
2019-04-01T03:47:58.026Z,97160.22
2019-04-01T03:50:30.207Z,97167.66
2019-04-01T03:53:03.231Z,97163.17
2019-04-01T03:55:35.518Z,97165.23
2019-04-01T03:58:07.078Z,97167.88
2019-04-01T04:00:38.908Z,97168.78
2019-04-01T04:03:10.771Z,97173.31
2019-04-01T04:05:42.463Z,97171.67
2019-04-01T04:08:14.168Z,97177.87
2019-04-01T04:10:45.991Z,97177.18
2019-04-01T04:13:17.566Z,97172.03
2019-04-01T04:15:49.242Z,97181.12
2019-04-01T04:18:20.869Z,97174.86
2019-04-01T04:20:52.750Z,97181.44
2019-04-01T04:23:24.378Z,97182.17
2019-04-01T04:25:56.107Z,97187.95
2019-04-01T04:28:28.355Z,97184.95
2019-04-01T04:31:00.708Z,97188.84
2019-04-01T04:33:32.474Z,97185.78
2019-04-01T04:36:04.231Z,97191.77
2019-04-01T04:38:35.974Z,97188.30
2019-04-01T04:41:08.341Z,97198.23
2019-04-01T04:43:40.388Z,97198.72
2019-04-01T04:46:12.202Z,97204.53
2019-04-01T04:48:43.921Z,97208.27
2019-04-01T04:51:16.637Z,97210.13
2019-04-01T04:53:49.713Z,97207.03
2019-04-01T04:56:23.632Z,97215.76
2019-04-01T04:58:56.716Z,97217.16
2019-04-01T05:01:30.010Z,97224.34
2019-04-01T05:04:02.258Z,97226.39
2019-04-01T05:06:34.028Z,97217.30
2019-04-01T05:09:07.285Z,97222.08
2019-04-01T05:11:39.080Z,97223.90
2019-04-01T05:14:10.743Z,97223.43
2019-04-01T05:16:42.454Z,97222.98
2019-04-01T05:19:15.438Z,97218.53
2019-04-01T05:21:47.345Z,97225.59
2019-04-01T05:24:19.615Z,97221.92
2019-04-01T05:26:53.246Z,97228.59
2019-04-01T05:29:26.614Z,97222.59
2019-04-01T05:32:00.636Z,97222.95
2019-04-01T05:34:33.772Z,97222.16
2019-04-01T05:37:08.764Z,97227.53
2019-04-01T05:39:39.417Z,97232.72
2019-04-01T05:42:11.199Z,97223.75
2019-04-01T05:44:42.900Z,97222.62
2019-04-01T05:47:14.649Z,97221.31
2019-04-01T05:49:46.375Z,97232.50
2019-04-01T05:52:18.064Z,97228.31
2019-04-01T05:54:49.709Z,97228.90
2019-04-01T05:57:21.245Z,97241.39
2019-04-01T05:59:52.998Z,97236.05
2019-04-01T06:02:24.728Z,97236.92
2019-04-01T06:04:57.413Z,97238.09
2019-04-01T06:07:29.513Z,97234.55
2019-04-01T06:10:01.380Z,97229.22
2019-04-01T06:12:33.410Z,97234.34
2019-04-01T06:15:07.585Z,97224.83
2019-04-01T06:17:42.069Z,97235.89
2019-04-01T06:20:14.137Z,97231.45
2019-04-01T06:22:45.796Z,97233.63
2019-04-01T06:25:17.751Z,97233.63
2019-04-01T06:27:50.139Z,97238.93
2019-04-01T06:30:24.292Z,97231.15
2019-04-01T06:32:59.296Z,97238.44
2019-04-01T06:35:32.739Z,97232.53
2019-04-01T06:38:09.632Z,97238.17
2019-04-01T06:40:41.485Z,97238.17
2019-04-01T06:43:13.686Z,97241.94
2019-04-01T06:45:45.785Z,97243.20
2019-04-01T06:48:17.807Z,97246.01
2019-04-01T06:50:49.481Z,97245.18
2019-04-01T06:53:21.149Z,97254.90
2019-04-01T06:55:55.886Z,97255.59
2019-04-01T06:58:28.049Z,97263.24
2019-04-01T07:00:59.941Z,97269.42
2019-04-01T07:03:31.724Z,97260.84
2019-04-01T07:06:05.203Z,97271.98
2019-04-01T07:08:38.064Z,97277.59
2019-04-01T07:11:09.787Z,97279.11
2019-04-01T07:13:42.038Z,97279.57
2019-04-01T07:16:15.893Z,97275.34
2019-04-01T07:18:47.731Z,97272.70
2019-04-01T07:21:20.747Z,97278.10
2019-04-01T07:23:52.380Z,97274.60
2019-04-01T07:26:25.904Z,97284.12
2019-04-01T07:28:58.064Z,97285.05
2019-04-01T07:31:30.587Z,97291.09
2019-04-01T07:34:03.522Z,97286.83
2019-04-01T07:36:36.559Z,97291.61
2019-04-01T07:39:09.108Z,97295.37
2019-04-01T07:41:41.042Z,97291.55
2019-04-01T07:44:12.875Z,97292.16
2019-04-01T07:46:44.709Z,97298.28
2019-04-01T07:49:16.983Z,97298.63
2019-04-01T07:51:49.501Z,97299.61
2019-04-01T07:54:21.439Z,97299.31
2019-04-01T07:56:53.668Z,97302.13
2019-04-01T07:59:25.629Z,97297.88
2019-04-01T08:01:59.134Z,97299.19
2019-04-01T08:04:33.199Z,97301.33
2019-04-01T08:07:05.372Z,97296.06
2019-04-01T08:09:37.687Z,97292.83
2019-04-01T08:12:10.175Z,97303.92
2019-04-01T08:14:45.089Z,97293.61
2019-04-01T08:17:16.968Z,97298.78
2019-04-01T08:19:49.856Z,97299.27
2019-04-01T08:22:23.038Z,97297.82
2019-04-01T08:24:55.602Z,97298.10
2019-04-01T08:27:27.447Z,97303.44
2019-04-01T08:29:59.630Z,97305.05
2019-04-01T08:32:38.824Z,97305.28
2019-04-01T08:35:14.985Z,97300.91
2019-04-01T08:37:53.183Z,97301.20
2019-04-01T08:40:29.188Z,97305.95
2019-04-01T08:43:09.087Z,97303.17
2019-04-01T08:45:49.902Z,97308.52
2019-04-01T08:48:35.325Z,97306.88
2019-04-01T08:51:11.907Z,97301.36
2019-04-01T08:53:51.415Z,97311.72
2019-04-01T08:56:28.221Z,97305.05
2019-04-01T08:59:40.661Z,97305.77
2019-04-01T09:02:47.622Z,97308.34
2019-04-01T09:05:54.236Z,97308.26
2019-04-01T09:08:58.188Z,97310.95
2019-04-01T09:11:38.228Z,97305.32
2019-04-01T09:14:10.700Z,97306.25
2019-04-01T09:16:44.389Z,97304.92
2019-04-01T09:19:16.128Z,97314.72
2019-04-01T09:21:48.319Z,97314.77
2019-04-01T09:24:20.145Z,97301.66
2019-04-01T09:26:51.822Z,97303.94
2019-04-01T09:29:23.577Z,97309.59
2019-04-01T09:31:56.803Z,97308.30
2019-04-01T09:34:30.156Z,97300.41
2019-04-01T09:37:02.114Z,97299.85
2019-04-01T09:39:34.106Z,97302.55
2019-04-01T09:42:05.929Z,97297.16
2019-04-01T09:44:37.908Z,97290.44
2019-04-01T09:47:11.201Z,97288.28
2019-04-01T09:49:43.630Z,97284.47
2019-04-01T09:52:16.619Z,97296.06
2019-04-01T09:54:49.940Z,97298.70
2019-04-01T09:57:21.688Z,97308.67
2019-04-01T09:59:53.558Z,97304.52
2019-04-01T10:02:32.138Z,97300.56
2019-04-01T10:05:02.332Z,97298.42
2019-04-01T10:07:34.305Z,97293.97
2019-04-01T10:10:06.950Z,97289.73
2019-04-01T10:12:39.853Z,97290.95
2019-04-01T10:15:11.677Z,97295.27
2019-04-01T10:17:44.069Z,97296.26
2019-04-01T10:20:16.780Z,97301.05
2019-04-01T10:22:49.031Z,97299.91
2019-04-01T10:25:23.152Z,97304.64
2019-04-01T10:27:55.002Z,97300.89
2019-04-01T10:30:26.972Z,97304.64
2019-04-01T10:33:01.970Z,97311.98
2019-04-01T10:35:33.033Z,97302.83
2019-04-01T10:38:06.875Z,97298.91
2019-04-01T10:40:38.747Z,97298.73
2019-04-01T10:43:10.561Z,97292.39
2019-04-01T10:45:42.792Z,97297.20
2019-04-01T10:48:14.591Z,97294.74
2019-04-01T10:50:46.299Z,97299.77
2019-04-01T10:53:17.984Z,97297.14
2019-04-01T10:55:50.093Z,97295.03
2019-04-01T10:58:23.158Z,97291.39
2019-04-01T11:00:55.150Z,97285.84
2019-04-01T11:03:27.784Z,97281.07
2019-04-01T11:06:01.043Z,97282.09
2019-04-01T11:08:33.109Z,97283.84
2019-04-01T11:11:06.427Z,97278.23
2019-04-01T11:13:39.636Z,97278.86
2019-04-01T11:16:13.554Z,97276.72
2019-04-01T11:18:47.338Z,97274.62
2019-04-01T11:21:19.051Z,97267.17
2019-04-01T11:23:50.697Z,97274.84
2019-04-01T11:26:22.651Z,97266.62
2019-04-01T11:28:55.866Z,97265.14
2019-04-01T11:31:28.263Z,97261.20
2019-04-01T11:33:59.950Z,97270.05
2019-04-01T11:36:31.720Z,97264.51
2019-04-01T11:39:05.108Z,97264.20
2019-04-01T11:41:38.952Z,97263.97
2019-04-01T11:44:10.832Z,97274.14
2019-04-01T11:46:45.006Z,97269.38
2019-04-01T11:49:19.041Z,97279.52
2019-04-01T11:51:50.800Z,97274.40
2019-04-01T11:54:25.101Z,97276.36
2019-04-01T11:56:57.756Z,97271.13
2019-04-01T11:59:29.898Z,97264.55
2019-04-01T12:02:01.516Z,97268.69
2019-04-01T12:04:33.710Z,97268.16
2019-04-01T12:07:05.896Z,97269.61
2019-04-01T12:09:37.684Z,97268.56
2019-04-01T12:12:22.785Z,97262.52
2019-04-01T12:14:45.111Z,97265.84
2019-04-01T12:17:16.847Z,97250.44
2019-04-01T12:19:48.367Z,97253.38
2019-04-01T12:22:20.176Z,97255.52
2019-04-01T12:24:51.872Z,97256.98
2019-04-01T12:27:23.501Z,97253.19
2019-04-01T12:29:56.078Z,97248.25
2019-04-01T12:32:27.799Z,97249.21
2019-04-01T12:34:59.521Z,97249.56
2019-04-01T12:37:33.505Z,97244.23
2019-04-01T12:40:05.348Z,97241.73
2019-04-01T12:42:37.946Z,97242.94
2019-04-01T12:45:10.665Z,97227.97
2019-04-01T12:47:43.627Z,97230.17
2019-04-01T12:50:15.534Z,97232.69
2019-04-01T12:52:47.940Z,97226.98
2019-04-01T12:55:20.188Z,97221.34
2019-04-01T12:57:52.275Z,97222.55
2019-04-01T13:00:24.006Z,97222.66
2019-04-01T13:02:56.472Z,97228.88
2019-04-01T13:05:28.114Z,97228.39
2019-04-01T13:08:00.884Z,97222.09
2019-04-01T13:10:33.134Z,97220.98
2019-04-01T13:13:04.799Z,97230.61
2019-04-01T13:15:36.737Z,97224.95
2019-04-01T13:18:08.550Z,97226.73
2019-04-01T13:20:42.001Z,97233.06
2019-04-01T13:23:14.864Z,97231.06
2019-04-01T13:25:47.106Z,97234.72
2019-04-01T13:28:18.742Z,97235.06
2019-04-01T13:30:50.461Z,97231.75
2019-04-01T13:33:22.008Z,97235.67
2019-04-01T13:35:54.734Z,97230.22
2019-04-01T13:38:26.615Z,97230.97
2019-04-01T13:40:58.877Z,97246.79
2019-04-01T13:43:30.365Z,97234.50
2019-04-01T13:46:02.055Z,97237.29
2019-04-01T13:48:33.696Z,97236.03
2019-04-01T13:51:05.679Z,97247.20
2019-04-01T13:53:37.530Z,97244.84
2019-04-01T13:56:10.409Z,97236.87
2019-04-01T13:58:43.599Z,97236.97
2019-04-01T14:01:15.293Z,97240.05
2019-04-01T14:03:47.556Z,97238.55
2019-04-01T14:06:19.238Z,97237.19
2019-04-01T14:08:51.295Z,97236.77
2019-04-01T14:11:25.886Z,97236.31
2019-04-01T14:13:59.934Z,97236.47
2019-04-01T14:16:32.610Z,97231.55
2019-04-01T14:19:06.049Z,97235.38
2019-04-01T14:21:37.826Z,97230.52
2019-04-01T14:24:09.726Z,97233.42
2019-04-01T14:26:44.302Z,97236.09
2019-04-01T14:29:16.838Z,97227.50
2019-04-01T14:31:48.861Z,97228.22
2019-04-01T14:34:23.393Z,97233.42
2019-04-01T14:36:54.283Z,97233.60
2019-04-01T14:39:26.995Z,97234.11
2019-04-01T14:41:59.315Z,97238.75
2019-04-01T14:44:31.168Z,97239.75
2019-04-01T14:47:03.685Z,97242.09
2019-04-01T14:49:36.449Z,97234.78
2019-04-01T14:52:08.054Z,97236.25
2019-04-01T14:54:40.373Z,97239.27
2019-04-01T14:57:12.659Z,97233.91
2019-04-01T14:59:45.614Z,97235.09
2019-04-01T15:02:17.670Z,97236.19
2019-04-01T15:04:49.318Z,97241.45
2019-04-01T15:07:21.675Z,97238.64
2019-04-01T15:09:54.186Z,97244.86
2019-04-01T15:12:25.809Z,97241.25
2019-04-01T15:14:59.186Z,97238.73
2019-04-01T15:17:31.493Z,97245.72
2019-04-01T15:20:03.300Z,97243.61
2019-04-01T15:22:34.995Z,97239.80
2019-04-01T15:25:08.473Z,97244.83
2019-04-01T15:27:40.974Z,97251.33
2019-04-01T15:30:14.272Z,97249.33
2019-04-01T15:32:47.885Z,97252.64
2019-04-01T15:35:19.616Z,97246.86
2019-04-01T15:37:52.110Z,97248.70
2019-04-01T15:40:26.183Z,97248.09
2019-04-01T15:42:58.417Z,97247.27
2019-04-01T15:45:32.133Z,97243.69
2019-04-01T15:48:07.631Z,97249.80
2019-04-01T15:50:42.366Z,97249.30
2019-04-01T15:53:14.983Z,97250.23
2019-04-01T15:55:47.726Z,97253.55
2019-04-01T15:58:19.976Z,97251.89
2019-04-01T16:00:51.789Z,97249.15
2019-04-01T16:03:26.060Z,97236.72
2019-04-01T16:05:57.773Z,97234.73
2019-04-01T16:08:29.904Z,97236.97
2019-04-01T16:11:01.647Z,97234.30
2019-04-01T16:13:35.315Z,97233.64
2019-04-01T16:16:09.803Z,97230.75
2019-04-01T16:18:42.696Z,97227.96
2019-04-01T16:21:14.395Z,97229.99
2019-04-01T16:23:47.290Z,97223.02
2019-04-01T16:26:20.787Z,97225.19
2019-04-01T16:28:52.390Z,97232.45
2019-04-01T16:31:24.184Z,97234.30
2019-04-01T16:33:56.271Z,97235.48
2019-04-01T16:36:27.994Z,97241.53
2019-04-01T16:39:00.577Z,97241.12
2019-04-01T16:41:36.803Z,97236.69
2019-04-01T16:44:08.518Z,97243.44
2019-04-01T16:46:41.900Z,97240.59
2019-04-01T16:49:15.231Z,97245.71
2019-04-01T16:51:50.649Z,97244.58
2019-04-01T16:54:23.254Z,97246.84
2019-04-01T16:56:54.968Z,97246.23
2019-04-01T16:59:28.051Z,97253.28
2019-04-01T17:01:59.851Z,97252.95
2019-04-01T17:04:34.479Z,97251.78
2019-04-01T17:07:06.128Z,97256.70
2019-04-01T17:09:37.848Z,97257.95
2019-04-01T17:12:10.685Z,97256.57
2019-04-01T17:14:42.711Z,97259.18
2019-04-01T17:17:14.756Z,97254.17
2019-04-01T17:19:46.586Z,97267.84
2019-04-01T17:22:18.331Z,97265.86
2019-04-01T17:24:50.549Z,97269.09
2019-04-01T17:27:39.844Z,97275.59
2019-04-01T17:30:13.744Z,97276.09
2019-04-01T17:32:45.510Z,97282.91
2019-04-01T17:35:17.627Z,97279.94
2019-04-01T17:37:49.400Z,97290.23
2019-04-01T17:40:21.581Z,97288.53
2019-04-01T17:42:53.167Z,97286.63
2019-04-01T17:45:41.022Z,97296.28
2019-04-01T17:48:13.464Z,97300.44
2019-04-01T17:50:45.210Z,97299.03
2019-04-01T17:53:17.811Z,97305.44
2019-04-01T17:55:49.688Z,97301.79
2019-04-01T17:58:21.528Z,97307.09
2019-04-01T18:00:56.657Z,97306.19
2019-04-01T18:03:28.160Z,97312.06
2019-04-01T18:06:00.801Z,97318.31
2019-04-01T18:08:34.104Z,97319.97
2019-04-01T18:11:06.445Z,97315.00
2019-04-01T18:13:42.407Z,97317.59
2019-04-01T18:16:14.606Z,97324.33
2019-04-01T18:18:46.941Z,97326.67
2019-04-01T18:21:18.720Z,97328.80
2019-04-01T18:23:54.117Z,97334.59
2019-04-01T18:26:27.809Z,97338.22
2019-04-01T18:28:59.506Z,97331.88
2019-04-01T18:31:32.299Z,97334.94
2019-04-01T18:34:04.457Z,97334.70
2019-04-01T18:36:36.093Z,97332.70
2019-04-01T18:39:09.980Z,97330.34
2019-04-01T18:41:41.621Z,97331.62
2019-04-01T18:44:13.593Z,97332.33
2019-04-01T18:46:46.142Z,97332.80
2019-04-01T18:49:18.127Z,97328.31
2019-04-01T18:51:49.800Z,97335.02
2019-04-01T18:54:22.185Z,97335.35
2019-04-01T18:56:54.430Z,97343.59
2019-04-01T18:59:26.311Z,97338.88
2019-04-01T19:01:58.082Z,97341.25
2019-04-01T19:04:29.869Z,97338.07
2019-04-01T19:07:01.703Z,97342.66
2019-04-01T19:09:33.919Z,97340.56
2019-04-01T19:12:08.305Z,97340.69
2019-04-01T19:14:40.663Z,97338.80
2019-04-01T19:17:14.110Z,97335.63
2019-04-01T19:19:48.591Z,97343.14
2019-04-01T19:22:20.728Z,97340.09
2019-04-01T19:24:52.518Z,97343.89
2019-04-01T19:27:24.785Z,97335.96
2019-04-01T19:29:56.521Z,97341.73
2019-04-01T19:32:29.301Z,97348.34
2019-04-01T19:35:01.165Z,97339.45
2019-04-01T19:37:33.831Z,97346.66
2019-04-01T19:40:06.350Z,97342.27
2019-04-01T19:42:39.642Z,97338.24
2019-04-01T19:45:13.145Z,97343.30
2019-04-01T19:47:52.366Z,97343.30
2019-04-01T19:50:25.241Z,97347.95
2019-04-01T19:52:57.010Z,97349.39
2019-04-01T19:55:29.739Z,97351.41
2019-04-01T19:58:04.901Z,97345.05
2019-04-01T20:00:35.588Z,97355.67
2019-04-01T20:03:07.287Z,97344.67
2019-04-01T20:05:39.574Z,97344.67
2019-04-01T20:08:14.138Z,97356.45
2019-04-01T20:10:46.636Z,97357.98
2019-04-01T20:13:18.460Z,97364.00
2019-04-01T20:15:50.072Z,97356.23
2019-04-01T20:18:23.966Z,97365.28
2019-04-01T20:20:55.528Z,97377.40
2019-04-01T20:23:27.118Z,97378.44
2019-04-01T20:25:59.077Z,97382.50
2019-04-01T20:28:31.994Z,97383.62
2019-04-01T20:31:03.676Z,97386.16
2019-04-01T20:33:35.486Z,97390.63
2019-04-01T20:36:07.595Z,97389.30
2019-04-01T20:38:39.405Z,97399.58
2019-04-01T20:41:11.156Z,97403.02
2019-04-01T20:43:44.224Z,97412.21
2019-04-01T20:46:16.567Z,97412.28
2019-04-01T20:48:48.185Z,97410.06
2019-04-01T20:51:21.349Z,97410.41
2019-04-01T20:53:56.393Z,97407.02
2019-04-01T20:56:28.078Z,97403.66
2019-04-01T20:58:59.704Z,97407.41
2019-04-01T21:01:31.283Z,97412.44
2019-04-01T21:04:03.115Z,97422.33
2019-04-01T21:06:36.104Z,97424.11
2019-04-01T21:09:10.055Z,97442.16
2019-04-01T21:11:42.762Z,97442.16
2019-04-01T21:14:14.315Z,97447.22
2019-04-01T21:16:45.963Z,97445.92
2019-04-01T21:19:17.610Z,97438.45
2019-04-01T21:21:49.395Z,97443.19
2019-04-01T21:24:20.928Z,97456.19
2019-04-01T21:26:52.527Z,97450.52
2019-04-01T21:29:24.261Z,97455.45
2019-04-01T21:31:56.025Z,97448.37
2019-04-01T21:34:27.611Z,97455.91
2019-04-01T21:36:59.314Z,97456.53
2019-04-01T21:39:30.919Z,97460.80
2019-04-01T21:42:02.555Z,97458.75
2019-04-01T21:44:35.472Z,97468.73
2019-04-01T21:47:07.202Z,97469.47
2019-04-01T21:49:40.253Z,97468.75
2019-04-01T21:52:12.014Z,97469.17
2019-04-01T21:54:43.650Z,97473.09
2019-04-01T21:57:15.352Z,97465.14
2019-04-01T21:59:47.137Z,97476.55
2019-04-01T22:02:18.774Z,97476.55
2019-04-01T22:04:50.714Z,97482.09
2019-04-01T22:07:22.584Z,97476.81
2019-04-01T22:09:54.311Z,97483.84
2019-04-01T22:12:26.986Z,97482.52
2019-04-01T22:15:01.669Z,97484.27
2019-04-01T22:17:33.660Z,97484.27
2019-04-01T22:20:07.480Z,97469.97
2019-04-01T22:22:39.105Z,97474.38
2019-04-01T22:25:11.033Z,97474.38
2019-04-01T22:27:42.762Z,97474.22
2019-04-01T22:30:17.093Z,97487.00
2019-04-01T22:32:50.046Z,97487.00
2019-04-01T22:35:22.880Z,97485.47
2019-04-01T22:37:54.455Z,97485.77
2019-04-01T22:40:26.234Z,97486.27
2019-04-01T22:42:58.122Z,97475.39
2019-04-01T22:45:29.798Z,97484.59
2019-04-01T22:48:01.398Z,97485.53
2019-04-01T22:50:33.710Z,97477.06
2019-04-01T22:53:05.447Z,97487.39
2019-04-01T22:55:37.114Z,97486.75
2019-04-01T22:58:08.948Z,97490.58
2019-04-01T23:00:40.749Z,97498.35
2019-04-01T23:03:12.551Z,97493.45
2019-04-01T23:05:44.195Z,97496.33
2019-04-01T23:08:15.961Z,97499.88
2019-04-01T23:10:47.688Z,97501.73
2019-04-01T23:13:20.163Z,97508.34
2019-04-01T23:15:52.340Z,97511.52
2019-04-01T23:18:24.141Z,97506.00
2019-04-01T23:20:56.426Z,97510.78
2019-04-01T23:23:28.368Z,97512.18
2019-04-01T23:26:00.850Z,97515.20
2019-04-01T23:28:32.524Z,97515.33
2019-04-01T23:31:04.207Z,97523.57
2019-04-01T23:33:35.958Z,97521.63
2019-04-01T23:36:07.794Z,97532.52
2019-04-01T23:38:40.526Z,97527.17
2019-04-01T23:41:12.231Z,97530.61
2019-04-01T23:43:44.709Z,97537.55
2019-04-01T23:46:16.556Z,97522.52
2019-04-01T23:48:48.137Z,97530.09
2019-04-01T23:51:19.874Z,97529.18
2019-04-01T23:53:51.457Z,97527.72
2019-04-01T23:56:24.313Z,97524.20
2019-04-01T23:58:55.926Z,97521.62
